Iquique, Iquique Diego Aracena International Airport (SCDA)

NameIquique Diego Aracena International Airport
CityIquique
CountryChile
ICAOSCDA
IATAIQQ
Altitude47 m
CoordinatesGoogle Map
Live Air TrafficLiveATC.net
METARSCDA 230800Z 13003KT CAVOK 14/09 Q1015
2019-10-23 08:00:00 Wind: East-Southeast (130°) 1.54 m/s - Visibility: > 10000 m - Weather: CAVOK - Temperature: 14 °C - Dew point: 9 °C - Humidity: 72.1% - Pressure: 1015 hPa
Statistics

The table below shows the detailed information of all flights to/from Iquique, Iquique Diego Aracena International Airport (SCDA).